Wetterdaten: Woche 29.04.13 - 05.05.13 (KW18)
Datum Zeit Temperatur Luftfeuchte Luftdruck Niederschlag Windrichtung Sonnenschein Solar Wind
29.04.2013 00:00 8,1 C 87 % 1014,5 hPa 0,0 l/m NO 0,00 h 0 W/m 5,2 km/h (1 Bft)
29.04.2013 01:00 7,8 C 89 % 1014,6 hPa 0,0 l/m NO 0,00 h 0 W/m 1,3 km/h (1 Bft)
29.04.2013 02:00 7,8 C 90 % 1014,4 hPa 0,4 l/m N 0,00 h 0 W/m 0,7 km/h (0 Bft)
29.04.2013 03:00 7,5 C 91 % 1014,1 hPa 0,0 l/m N 0,00 h 0 W/m 1,6 km/h (1 Bft)
29.04.2013 04:00 7,1 C 93 % 1014,3 hPa 0,0 l/m N 0,00 h 0 W/m 1,2 km/h (1 Bft)
29.04.2013 05:00 7,0 C 94 % 1014,1 hPa 0,2 l/m N 0,00 h 0 W/m 2,1 km/h (1 Bft)
29.04.2013 06:00 6,9 C 95 % 1014,5 hPa 0,0 l/m NO 0,00 h 13 W/m 2,4 km/h (1 Bft)
29.04.2013 07:00 7,1 C 95 % 1014,4 hPa 0,0 l/m N 0,00 h 52 W/m 1,1 km/h (0 Bft)
29.04.2013 08:00 7,8 C 94 % 1015,4 hPa 0,0 l/m NO 0,00 h 83 W/m 2,0 km/h (1 Bft)
29.04.2013 09:00 8,8 C 90 % 1015,9 hPa 0,0 l/m NO 0,00 h 148 W/m 2,7 km/h (1 Bft)
29.04.2013 10:00 9,5 C 85 % 1016,2 hPa 0,0 l/m NO 0,00 h 139 W/m 6,1 km/h (2 Bft)
29.04.2013 11:00 9,9 C 84 % 1016,6 hPa 0,0 l/m NO 0,00 h 117 W/m 3,6 km/h (1 Bft)
29.04.2013 12:00 10,1 C 82 % 1017,3 hPa 0,0 l/m N 0,00 h 102 W/m 2,1 km/h (1 Bft)
29.04.2013 13:00 10,6 C 81 % 1017,6 hPa 0,0 l/m N 0,00 h 134 W/m 2,4 km/h (1 Bft)
29.04.2013 14:00 11,5 C 78 % 1017,5 hPa 0,0 l/m O-NO 0,00 h 188 W/m 4,3 km/h (1 Bft)
29.04.2013 15:00 11,9 C 77 % 1017,6 hPa 0,0 l/m SO 0,00 h 116 W/m 5,1 km/h (1 Bft)
29.04.2013 16:00 11,7 C 78 % 1017,5 hPa 0,0 l/m S-SO 0,00 h 81 W/m 3,3 km/h (1 Bft)
29.04.2013 17:00 11,7 C 80 % 1017,7 hPa 0,0 l/m S-SO 0,00 h 45 W/m 2,4 km/h (1 Bft)
29.04.2013 18:00 11,4 C 82 % 1017,9 hPa 0,0 l/m S-SO 0,00 h 31 W/m 1,3 km/h (1 Bft)
29.04.2013 19:00 11,2 C 86 % 1017,9 hPa 0,0 l/m N 0,00 h 19 W/m 1,1 km/h (0 Bft)
29.04.2013 20:00 10,9 C 88 % 1018,0 hPa 0,0 l/m N 0,00 h 6 W/m 0,5 km/h (0 Bft)
29.04.2013 21:00 10,5 C 90 % 1018,1 hPa 0,2 l/m N 0,00 h 0 W/m 2,7 km/h (1 Bft)
29.04.2013 22:00 10,0 C 92 % 1017,7 hPa 0,0 l/m N 0,00 h 0 W/m 2,9 km/h (1 Bft)
29.04.2013 23:00 9,6 C 93 % 1017,2 hPa 0,0 l/m O-SO 0,00 h 0 W/m 4,7 km/h (1 Bft)
30.04.2013 00:00 9,2 C 94 % 1016,9 hPa 0,0 l/m O 0,00 h 0 W/m 9,0 km/h (2 Bft)
30.04.2013 01:00 8,8 C 95 % 1016,7 hPa 0,0 l/m N-NO 0,00 h 0 W/m 11,2 km/h (2 Bft)
30.04.2013 02:00 8,6 C 95 % 1016,3 hPa 0,0 l/m NO 0,00 h 0 W/m 11,8 km/h (2 Bft)
30.04.2013 03:00 8,6 C 96 % 1015,8 hPa 0,0 l/m NO 0,00 h 0 W/m 12,1 km/h (2 Bft)
30.04.2013 04:00 8,5 C 96 % 1015,4 hPa 0,0 l/m NO 0,00 h 0 W/m 13,8 km/h (3 Bft)
30.04.2013 05:00 8,3 C 96 % 1015,3 hPa 0,0 l/m NO 0,00 h 0 W/m 10,6 km/h (2 Bft)
30.04.2013 06:00 8,2 C 96 % 1015,5 hPa 0,0 l/m NO 0,00 h 9 W/m 12,2 km/h (2 Bft)
30.04.2013 07:00 8,3 C 95 % 1015,6 hPa 0,0 l/m NO 0,00 h 24 W/m 14,6 km/h (3 Bft)
30.04.2013 08:00 8,9 C 94 % 1015,3 hPa 0,0 l/m O-NO 0,00 h 65 W/m 17,7 km/h (3 Bft)
30.04.2013 09:00 9,8 C 92 % 1015,1 hPa 0,0 l/m O-NO 0,00 h 102 W/m 14,2 km/h (3 Bft)
30.04.2013 10:00 10,9 C 87 % 1015,1 hPa 0,0 l/m O-NO 0,00 h 138 W/m 19,2 km/h (3 Bft)
30.04.2013 11:00 11,4 C 84 % 1015,2 hPa 0,0 l/m O 0,00 h 147 W/m 20,0 km/h (4 Bft)
30.04.2013 12:00 12,3 C 81 % 1015,0 hPa 0,0 l/m NO 0,00 h 171 W/m 16,0 km/h (3 Bft)
30.04.2013 13:00 13,8 C 76 % 1014,8 hPa 0,0 l/m O-NO 0,08 h 319 W/m 15,3 km/h (3 Bft)
30.04.2013 14:00 14,7 C 73 % 1014,9 hPa 0,0 l/m NO 0,08 h 319 W/m 14,1 km/h (3 Bft)
30.04.2013 15:00 14,8 C 72 % 1014,9 hPa 0,0 l/m O-NO 0,00 h 210 W/m 13,4 km/h (3 Bft)
30.04.2013 16:00 14,3 C 75 % 1015,3 hPa 0,0 l/m O-NO 0,00 h 116 W/m 10,6 km/h (2 Bft)
30.04.2013 17:00 14,2 C 76 % 1015,5 hPa 0,0 l/m NO 0,00 h 93 W/m 8,7 km/h (2 Bft)
30.04.2013 18:00 13,8 C 79 % 1015,7 hPa 0,0 l/m NO 0,00 h 76 W/m 9,0 km/h (2 Bft)
30.04.2013 19:00 13,3 C 81 % 1015,9 hPa 0,0 l/m NO 0,00 h 35 W/m 8,2 km/h (2 Bft)
30.04.2013 20:00 12,8 C 83 % 1016,6 hPa 0,0 l/m NO 0,00 h 6 W/m 3,9 km/h (1 Bft)
30.04.2013 21:00 12,6 C 84 % 1017,5 hPa 0,0 l/m NO 0,00 h 0 W/m 5,5 km/h (1 Bft)
30.04.2013 22:00 11,8 C 85 % 1017,9 hPa 0,0 l/m NO 0,00 h 0 W/m 12,4 km/h (3 Bft)
30.04.2013 23:00 11,0 C 88 % 1017,9 hPa 0,0 l/m NO 0,00 h 0 W/m 12,1 km/h (2 Bft)
01.05.2013 00:00 10,4 C 90 % 1018,1 hPa 0,0 l/m NO 0,00 h 0 W/m 8,7 km/h (2 Bft)
01.05.2013 01:00 10,0 C 91 % 1017,8 hPa 0,0 l/m O-NO 0,00 h 0 W/m 9,5 km/h (2 Bft)
01.05.2013 02:00 9,8 C 92 % 1017,2 hPa 0,0 l/m NO 0,00 h 0 W/m 10,6 km/h (2 Bft)
01.05.2013 03:00 9,7 C 92 % 1017,0 hPa 0,0 l/m O-NO 0,00 h 0 W/m 12,1 km/h (2 Bft)
01.05.2013 04:00 9,5 C 93 % 1016,7 hPa 0,0 l/m NO 0,00 h 0 W/m 11,8 km/h (2 Bft)
01.05.2013 05:00 9,1 C 94 % 1016,8 hPa 0,0 l/m NO 0,00 h 0 W/m 12,6 km/h (3 Bft)
01.05.2013 06:00 8,9 C 94 % 1017,4 hPa 0,0 l/m NO 0,00 h 10 W/m 9,4 km/h (2 Bft)
01.05.2013 07:00 8,8 C 94 % 1018,2 hPa 0,0 l/m NO 0,00 h 22 W/m 7,9 km/h (2 Bft)
01.05.2013 08:00 8,7 C 94 % 1018,1 hPa 0,0 l/m NO 0,00 h 50 W/m 10,1 km/h (2 Bft)
01.05.2013 09:00 9,5 C 92 % 1017,4 hPa 0,0 l/m O-NO 0,00 h 123 W/m 12,5 km/h (3 Bft)
01.05.2013 10:00 11,7 C 88 % 1017,0 hPa 0,0 l/m O 0,08 h 257 W/m 14,9 km/h (3 Bft)
01.05.2013 11:00 13,1 C 83 % 1016,4 hPa 0,0 l/m O-NO 0,50 h 398 W/m 16,6 km/h (3 Bft)
01.05.2013 12:00 14,4 C 80 % 1015,8 hPa 0,0 l/m O-NO 0,58 h 514 W/m 16,6 km/h (3 Bft)
01.05.2013 13:00 15,9 C 75 % 1015,1 hPa 0,0 l/m NO 0,92 h 586 W/m 17,0 km/h (3 Bft)
01.05.2013 14:00 17,1 C 72 % 1014,5 hPa 0,0 l/m NO 0,83 h 485 W/m 16,1 km/h (3 Bft)
01.05.2013 15:00 17,6 C 71 % 1014,0 hPa 0,0 l/m N-NO 0,83 h 534 W/m 16,8 km/h (3 Bft)
01.05.2013 16:00 18,6 C 68 % 1013,5 hPa 0,0 l/m NO 0,83 h 490 W/m 17,0 km/h (3 Bft)
01.05.2013 17:00 19,2 C 68 % 1013,4 hPa 0,0 l/m NO 0,92 h 363 W/m 15,7 km/h (3 Bft)
01.05.2013 18:00 18,2 C 72 % 1013,2 hPa 0,0 l/m O-NO 0,00 h 56 W/m 11,5 km/h (2 Bft)
01.05.2013 19:00 16,5 C 79 % 1014,3 hPa 0,0 l/m NW 0,00 h 11 W/m 7,5 km/h (2 Bft)
01.05.2013 20:00 14,4 C 92 % 1014,5 hPa 2,0 l/m N 0,00 h 5 W/m 8,6 km/h (2 Bft)
01.05.2013 21:00 13,3 C 95 % 1014,8 hPa 0,0 l/m N-NW 0,00 h 0 W/m 4,1 km/h (1 Bft)
01.05.2013 22:00 12,6 C 97 % 1015,1 hPa 0,0 l/m N-NW 0,00 h 0 W/m 4,8 km/h (1 Bft)
01.05.2013 23:00 12,8 C 96 % 1015,5 hPa 0,0 l/m N-NW 0,00 h 0 W/m 6,7 km/h (2 Bft)
02.05.2013 00:00 12,6 C 95 % 1016,1 hPa 0,0 l/m N-NW 0,00 h 0 W/m 4,9 km/h (1 Bft)
02.05.2013 01:00 12,2 C 95 % 1016,1 hPa 0,0 l/m N-NO 0,00 h 0 W/m 9,0 km/h (2 Bft)
02.05.2013 02:00 12,1 C 95 % 1016,0 hPa 0,0 l/m N-NO 0,00 h 0 W/m 1,7 km/h (1 Bft)
02.05.2013 03:00 11,8 C 96 % 1015,7 hPa 0,0 l/m N 0,00 h 0 W/m 1,1 km/h (0 Bft)
02.05.2013 04:00 11,4 C 97 % 1015,4 hPa 0,0 l/m N 0,00 h 0 W/m 0,4 km/h (0 Bft)
02.05.2013 05:00 11,4 C 98 % 1015,2 hPa 0,0 l/m N 0,00 h 0 W/m 0,0 km/h (0 Bft)
02.05.2013 06:00 11,1 C 98 % 1015,0 hPa 0,0 l/m N-NO 0,00 h 22 W/m 4,4 km/h (1 Bft)
02.05.2013 07:00 10,9 C 98 % 1015,2 hPa 0,0 l/m N-NW 0,00 h 55 W/m 5,4 km/h (1 Bft)
02.05.2013 08:00 12,4 C 95 % 1015,0 hPa 0,0 l/m N-NW 0,25 h 210 W/m 4,7 km/h (1 Bft)
02.05.2013 09:00 14,0 C 89 % 1015,0 hPa 0,0 l/m N 0,42 h 275 W/m 7,5 km/h (2 Bft)
02.05.2013 10:00 15,7 C 82 % 1015,1 hPa 0,0 l/m N-NO 0,67 h 446 W/m 9,4 km/h (2 Bft)
02.05.2013 11:00 16,9 C 77 % 1014,9 hPa 0,0 l/m N-NO 0,58 h 537 W/m 12,9 km/h (3 Bft)
02.05.2013 12:00 18,3 C 68 % 1014,4 hPa 0,0 l/m N-NO 0,92 h 753 W/m 14,0 km/h (3 Bft)
02.05.2013 13:00 19,1 C 62 % 1013,9 hPa 0,0 l/m NO 0,83 h 733 W/m 17,0 km/h (3 Bft)
02.05.2013 14:00 19,7 C 59 % 1013,4 hPa 0,0 l/m O-NO 1,00 h 778 W/m 17,0 km/h (3 Bft)
02.05.2013 15:00 19,6 C 59 % 1013,1 hPa 0,0 l/m N-NO 0,67 h 492 W/m 17,3 km/h (3 Bft)
02.05.2013 16:00 18,9 C 60 % 1012,7 hPa 0,0 l/m O-NO 0,58 h 371 W/m 16,9 km/h (3 Bft)
02.05.2013 17:00 18,1 C 63 % 1012,4 hPa 0,0 l/m NO 0,25 h 230 W/m 17,2 km/h (3 Bft)
02.05.2013 18:00 17,9 C 66 % 1012,1 hPa 0,0 l/m NO 1,00 h 268 W/m 17,7 km/h (3 Bft)
02.05.2013 19:00 16,4 C 71 % 1012,5 hPa 0,0 l/m NO 0,25 h 68 W/m 16,8 km/h (3 Bft)
02.05.2013 20:00 14,6 C 77 % 1013,3 hPa 0,0 l/m NO 0,08 h 12 W/m 12,5 km/h (3 Bft)
02.05.2013 21:00 13,3 C 81 % 1013,8 hPa 0,0 l/m NO 0,00 h 0 W/m 13,4 km/h (3 Bft)
02.05.2013 22:00 12,1 C 84 % 1014,1 hPa 0,0 l/m NO 0,00 h 0 W/m 9,8 km/h (2 Bft)
02.05.2013 23:00 11,1 C 87 % 1014,0 hPa 0,0 l/m NO 0,00 h 0 W/m 6,7 km/h (2 Bft)
03.05.2013 00:00 10,9 C 89 % 1014,4 hPa 0,0 l/m NO 0,00 h 0 W/m 3,3 km/h (1 Bft)
03.05.2013 01:00 10,9 C 89 % 1014,1 hPa 0,0 l/m W-NW 0,00 h 0 W/m 3,3 km/h (1 Bft)
03.05.2013 02:00 11,0 C 89 % 1013,1 hPa 0,0 l/m N 0,00 h 0 W/m 0,8 km/h (0 Bft)
03.05.2013 03:00 11,0 C 90 % 1012,1 hPa 0,0 l/m N 0,00 h 0 W/m 1,7 km/h (1 Bft)
03.05.2013 04:00 10,3 C 92 % 1011,6 hPa 0,0 l/m N 0,00 h 0 W/m 0,1 km/h (0 Bft)
03.05.2013 05:00 10,2 C 93 % 1011,2 hPa 0,0 l/m N 0,00 h 0 W/m 2,5 km/h (1 Bft)
03.05.2013 06:00 10,4 C 92 % 1011,2 hPa 0,0 l/m N 0,00 h 15 W/m 2,0 km/h (1 Bft)
03.05.2013 07:00 10,8 C 91 % 1011,2 hPa 0,0 l/m O-NO 0,00 h 65 W/m 5,9 km/h (2 Bft)
03.05.2013 08:00 11,8 C 88 % 1011,1 hPa 0,0 l/m O-NO 0,50 h 211 W/m 11,8 km/h (2 Bft)
03.05.2013 09:00 12,8 C 82 % 1011,0 hPa 0,0 l/m O-NO 0,08 h 196 W/m 13,7 km/h (3 Bft)
03.05.2013 10:00 13,5 C 79 % 1011,0 hPa 0,0 l/m O-NO 0,00 h 227 W/m 13,2 km/h (3 Bft)
03.05.2013 11:00 14,1 C 76 % 1011,0 hPa 0,0 l/m O-NO 0,08 h 246 W/m 12,9 km/h (3 Bft)
03.05.2013 12:00 14,4 C 77 % 1011,0 hPa 0,0 l/m N-NO 0,00 h 227 W/m 12,8 km/h (3 Bft)
03.05.2013 13:00 14,6 C 77 % 1011,2 hPa 0,0 l/m N-NO 0,00 h 132 W/m 10,2 km/h (2 Bft)
03.05.2013 14:00 14,3 C 79 % 1011,3 hPa 0,0 l/m N-NW 0,00 h 99 W/m 9,8 km/h (2 Bft)
03.05.2013 15:00 13,6 C 84 % 1011,5 hPa 0,8 l/m N-NW 0,00 h 69 W/m 11,8 km/h (2 Bft)
03.05.2013 16:00 13,7 C 89 % 1011,3 hPa 0,0 l/m N-NO 0,25 h 201 W/m 7,0 km/h (2 Bft)
03.05.2013 17:00 14,3 C 87 % 1011,5 hPa 0,0 l/m N-NO 0,25 h 241 W/m 5,6 km/h (1 Bft)
03.05.2013 18:00 13,7 C 88 % 1011,9 hPa 0,2 l/m O 0,00 h 41 W/m 7,9 km/h (2 Bft)
03.05.2013 19:00 12,7 C 93 % 1012,4 hPa 0,4 l/m W 0,00 h 19 W/m 8,9 km/h (2 Bft)
03.05.2013 20:00 11,8 C 93 % 1012,9 hPa 0,2 l/m W-SW 0,00 h 16 W/m 12,6 km/h (3 Bft)
03.05.2013 21:00 11,2 C 94 % 1013,7 hPa 0,0 l/m S-SW 0,00 h 0 W/m 8,6 km/h (2 Bft)
03.05.2013 22:00 10,5 C 96 % 1014,1 hPa 0,0 l/m SW 0,00 h 0 W/m 8,2 km/h (2 Bft)
03.05.2013 23:00 9,4 C 96 % 1014,2 hPa 0,0 l/m SW 0,00 h 0 W/m 3,2 km/h (1 Bft)
04.05.2013 00:00 8,7 C 97 % 1014,5 hPa 0,0 l/m N 0,00 h 0 W/m 1,1 km/h (0 Bft)
04.05.2013 01:00 8,4 C 98 % 1014,6 hPa 0,0 l/m W 0,00 h 0 W/m 2,0 km/h (1 Bft)
04.05.2013 02:00 9,1 C 97 % 1014,5 hPa 0,0 l/m W 0,00 h 0 W/m 8,6 km/h (2 Bft)
04.05.2013 03:00 8,9 C 95 % 1014,5 hPa 0,0 l/m W 0,00 h 0 W/m 11,3 km/h (2 Bft)
04.05.2013 04:00 8,2 C 96 % 1014,6 hPa 0,0 l/m W 0,00 h 0 W/m 5,3 km/h (1 Bft)
04.05.2013 05:00 7,8 C 97 % 1014,5 hPa 0,0 l/m N 0,00 h 0 W/m 1,3 km/h (1 Bft)
04.05.2013 06:00 7,4 C 97 % 1014,6 hPa 0,0 l/m N 0,00 h 12 W/m 0,3 km/h (0 Bft)
04.05.2013 07:00 8,1 C 97 % 1015,1 hPa 0,0 l/m W 0,33 h 105 W/m 3,5 km/h (1 Bft)
04.05.2013 08:00 10,7 C 88 % 1015,5 hPa 0,0 l/m W-SW 0,17 h 176 W/m 17,2 km/h (3 Bft)
04.05.2013 09:00 11,4 C 84 % 1016,1 hPa 0,0 l/m W-SW 0,00 h 190 W/m 14,5 km/h (3 Bft)
04.05.2013 10:00 12,0 C 81 % 1016,5 hPa 0,0 l/m W-SW 0,00 h 218 W/m 16,1 km/h (3 Bft)
04.05.2013 11:00 11,0 C 89 % 1016,9 hPa 0,8 l/m W-SW 0,00 h 213 W/m 16,5 km/h (3 Bft)
04.05.2013 12:00 11,9 C 86 % 1016,9 hPa 0,0 l/m SW 0,00 h 259 W/m 16,2 km/h (3 Bft)
04.05.2013 13:00 12,8 C 81 % 1016,9 hPa 0,0 l/m W-SW 0,00 h 269 W/m 19,4 km/h (3 Bft)
04.05.2013 14:00 13,8 C 76 % 1016,9 hPa 0,0 l/m W-SW 0,17 h 319 W/m 22,2 km/h (4 Bft)
04.05.2013 15:00 11,7 C 81 % 1017,3 hPa 0,0 l/m W-NW 0,00 h 95 W/m 17,7 km/h (3 Bft)
04.05.2013 16:00 11,7 C 87 % 1017,4 hPa 0,2 l/m W-NW 0,17 h 187 W/m 13,2 km/h (3 Bft)
04.05.2013 17:00 12,9 C 83 % 1017,8 hPa 0,0 l/m NW 0,25 h 243 W/m 10,3 km/h (2 Bft)
04.05.2013 18:00 13,5 C 79 % 1018,0 hPa 0,0 l/m W-NW 0,25 h 138 W/m 10,1 km/h (2 Bft)
04.05.2013 19:00 13,0 C 81 % 1018,4 hPa 0,0 l/m W-NW 0,00 h 37 W/m 5,4 km/h (1 Bft)
04.05.2013 20:00 12,1 C 87 % 1019,1 hPa 0,0 l/m W-NW 0,00 h 8 W/m 2,5 km/h (1 Bft)
04.05.2013 21:00 11,5 C 90 % 1019,8 hPa 0,0 l/m N 0,00 h 0 W/m 0,5 km/h (0 Bft)
04.05.2013 22:00 10,2 C 93 % 1020,4 hPa 0,0 l/m N 0,00 h 0 W/m 0,5 km/h (0 Bft)
04.05.2013 23:00 8,8 C 96 % 1020,8 hPa 0,0 l/m N 0,00 h 0 W/m 0,0 km/h (0 Bft)
05.05.2013 00:00 8,0 C 97 % 1021,0 hPa 0,0 l/m N 0,00 h 0 W/m 0,1 km/h (0 Bft)
05.05.2013 01:00 7,1 C 97 % 1021,0 hPa 0,0 l/m N 0,00 h 0 W/m 0,0 km/h (0 Bft)
05.05.2013 02:00 7,2 C 98 % 1020,9 hPa 0,0 l/m N 0,00 h 0 W/m 0,0 km/h (0 Bft)
05.05.2013 03:00 6,2 C 98 % 1020,9 hPa 0,0 l/m N 0,00 h 0 W/m 0,3 km/h (0 Bft)
05.05.2013 04:00 5,5 C 99 % 1020,7 hPa 0,0 l/m N 0,00 h 0 W/m 0,4 km/h (0 Bft)
05.05.2013 05:00 5,3 C 99 % 1020,7 hPa 0,0 l/m N 0,00 h 0 W/m 1,1 km/h (0 Bft)
05.05.2013 06:00 4,9 C 99 % 1020,9 hPa 0,0 l/m W-NW 0,00 h 17 W/m 0,7 km/h (0 Bft)
05.05.2013 07:00 5,6 C 99 % 1021,3 hPa 0,0 l/m W-NW 0,00 h 69 W/m 2,7 km/h (1 Bft)
05.05.2013 08:00 7,5 C 100 % 1021,4 hPa 0,0 l/m W-NW 0,42 h 225 W/m 5,1 km/h (1 Bft)
05.05.2013 09:00 11,8 C 90 % 1021,1 hPa 0,0 l/m N-NO 1,00 h 453 W/m 13,3 km/h (3 Bft)
05.05.2013 10:00 14,5 C 74 % 1020,9 hPa 0,0 l/m O-NO 1,00 h 607 W/m 18,0 km/h (3 Bft)
05.05.2013 11:00 16,2 C 64 % 1020,7 hPa 0,0 l/m NO 1,00 h 763 W/m 21,3 km/h (4 Bft)
05.05.2013 12:00 17,1 C 58 % 1020,3 hPa 0,0 l/m NO 0,83 h 755 W/m 21,6 km/h (4 Bft)
05.05.2013 13:00 18,2 C 52 % 1019,8 hPa 0,0 l/m O-SO 0,75 h 793 W/m 25,2 km/h (4 Bft)
05.05.2013 14:00 18,9 C 49 % 1019,4 hPa 0,0 l/m O 0,83 h 749 W/m 25,9 km/h (4 Bft)
05.05.2013 15:00 19,1 C 47 % 1018,9 hPa 0,0 l/m O 0,92 h 727 W/m 25,3 km/h (4 Bft)
05.05.2013 16:00 19,0 C 48 % 1018,2 hPa 0,0 l/m O-NO 0,92 h 616 W/m 25,9 km/h (4 Bft)
05.05.2013 17:00 18,7 C 49 % 1018,0 hPa 0,0 l/m O 0,83 h 445 W/m 25,5 km/h (4 Bft)
05.05.2013 18:00 18,1 C 52 % 1017,9 hPa 0,0 l/m O-NO 0,67 h 220 W/m 18,8 km/h (3 Bft)
05.05.2013 19:00 17,1 C 55 % 1017,8 hPa 0,0 l/m O 0,58 h 111 W/m 18,8 km/h (3 Bft)
05.05.2013 20:00 15,5 C 60 % 1017,9 hPa 0,0 l/m NO 0,00 h 14 W/m 10,2 km/h (2 Bft)
05.05.2013 21:00 13,9 C 67 % 1018,1 hPa 0,0 l/m NO 0,00 h 0 W/m 5,9 km/h (2 Bft)
05.05.2013 22:00 12,6 C 72 % 1018,0 hPa 0,0 l/m NO 0,00 h 0 W/m 6,3 km/h (2 Bft)
05.05.2013 23:00 12,2 C 74 % 1017,7 hPa 0,0 l/m NO 0,00 h 0 W/m 6,8 km/h (2 Bft)
Min-Datum _ 05.05.13 05.05.13 03.05.13 - - - - 29.04.13
_ Min-Zeit 06:35 15:15 12:35 - - - - 00:45
Minimum _ 4,8 C 46 % 1010,8 hPa - - - - 0,0 km/h (0 Bft)
Max-Datum _ 02.05.13 05.05.13 05.05.13 01.05.13 - 30.04.13 05.05.13 05.05.13
_ Max-Zeit 14:55 07:35 07:50 20:00 - 13:45 14:00 13:55
Maximum _ 20,1 C 100 % 1021,6 hPa 2,0 l/m - 0,08 h 983 W/m 38,6 km/h
O-SO (5 Bft)
Durchschnitt _ 11,9 C 85 % 1015,9 hPa #5,4 l/m NO #25:25 h 222 W/m 9,2 km/h (2 Bft)